createdAt,value
2022-11-17T00:00:21.891Z,91.48
2022-11-17T00:01:21.761Z,90.21
2022-11-17T00:02:21.791Z,90.31
2022-11-17T00:03:21.707Z,89.18
2022-11-17T00:04:21.746Z,90.00
2022-11-17T00:05:21.719Z,89.35
2022-11-17T00:06:21.727Z,89.76
2022-11-17T00:07:21.927Z,88.84
2022-11-17T00:08:21.653Z,88.90
2022-11-17T00:09:21.647Z,89.00
2022-11-17T00:10:21.642Z,89.41
2022-11-17T00:11:21.662Z,89.25
2022-11-17T00:12:22.858Z,89.00
2022-11-17T00:13:21.613Z,89.11
2022-11-17T00:14:21.601Z,89.31
2022-11-17T00:15:21.578Z,90.43
2022-11-17T00:16:21.625Z,90.74
2022-11-17T00:17:21.613Z,90.06
2022-11-17T00:18:21.561Z,89.20
2022-11-17T00:19:21.658Z,89.72
2022-11-17T00:20:21.535Z,89.51
2022-11-17T00:21:21.851Z,89.51
2022-11-17T00:22:21.523Z,90.88
2022-11-17T00:23:21.603Z,92.01
2022-11-17T00:24:21.492Z,91.19
2022-11-17T00:25:21.497Z,90.99
2022-11-17T00:26:21.534Z,91.60
2022-11-17T00:27:21.525Z,89.86
2022-11-17T00:28:21.439Z,89.86
2022-11-17T00:29:21.474Z,91.19
2022-11-17T00:30:21.436Z,90.99
2022-11-17T00:31:21.507Z,93.33
2022-11-17T00:32:21.472Z,92.21
2022-11-17T00:33:21.462Z,88.33
2022-11-17T00:34:21.390Z,90.88
2022-11-17T00:35:21.418Z,91.19
2022-11-17T00:36:21.413Z,91.09
2022-11-17T00:37:21.348Z,88.64
2022-11-17T00:38:21.338Z,86.76
2022-11-17T00:39:21.402Z,86.30
2022-11-17T00:40:21.313Z,85.86
2022-11-17T00:41:21.315Z,84.74
2022-11-17T00:42:21.354Z,86.16
2022-11-17T00:43:21.410Z,85.04
2022-11-17T00:44:21.286Z,84.33
2022-11-17T00:45:21.261Z,84.28
2022-11-17T00:46:21.295Z,85.75
2022-11-17T00:47:21.240Z,83.81
2022-11-17T00:48:21.243Z,84.28
2022-11-17T00:49:21.211Z,83.92
2022-11-17T00:50:21.302Z,85.24
2022-11-17T00:51:21.213Z,86.67
2022-11-17T00:52:21.184Z,86.16
2022-11-17T00:53:21.418Z,85.38
2022-11-17T00:54:21.182Z,87.84
2022-11-17T00:55:21.212Z,87.37
2022-11-17T00:56:21.145Z,87.06
2022-11-17T00:57:21.168Z,87.88
2022-11-17T00:58:21.114Z,88.94
2022-11-17T00:59:21.105Z,88.94
2022-11-17T01:00:21.093Z,89.18
2022-11-17T01:01:21.169Z,90.11
2022-11-17T01:02:21.081Z,89.33
2022-11-17T01:03:21.129Z,89.43
2022-11-17T01:04:21.113Z,89.43
2022-11-17T01:05:21.054Z,90.05
2022-11-17T01:06:21.055Z,90.45
2022-11-17T01:07:21.105Z,89.43
2022-11-17T01:08:21.064Z,89.39
2022-11-17T01:09:21.019Z,90.36
2022-11-17T01:10:20.980Z,89.43
2022-11-17T01:11:21.095Z,90.19
2022-11-17T01:12:20.979Z,89.47
2022-11-17T01:13:20.954Z,90.39
2022-11-17T01:14:20.933Z,89.37
2022-11-17T01:15:21.072Z,88.31
2022-11-17T01:16:20.932Z,88.51
2022-11-17T01:17:20.904Z,88.62
2022-11-17T01:18:20.917Z,88.06
2022-11-17T01:19:20.890Z,87.85
2022-11-17T01:20:20.870Z,88.06
2022-11-17T01:21:20.900Z,87.96
2022-11-17T01:22:20.970Z,87.10
2022-11-17T01:23:20.842Z,86.49
2022-11-17T01:24:20.837Z,86.29
2022-11-17T01:25:20.812Z,86.38
2022-11-17T01:26:20.925Z,86.04
2022-11-17T01:27:20.816Z,85.83
2022-11-17T01:28:20.795Z,85.08
2022-11-17T01:29:20.770Z,84.77
2022-11-17T01:30:20.797Z,84.74
2022-11-17T01:31:20.790Z,84.47
2022-11-17T01:32:20.741Z,84.98
2022-11-17T01:33:20.736Z,84.57
2022-11-17T01:34:20.715Z,84.67
2022-11-17T01:35:20.709Z,84.26
2022-11-17T01:36:20.714Z,84.26
2022-11-17T01:37:20.779Z,84.67
2022-11-17T01:38:20.679Z,84.06
2022-11-17T01:39:20.677Z,83.10
2022-11-17T01:40:20.652Z,84.63
2022-11-17T01:41:20.668Z,84.12
2022-11-17T01:42:20.641Z,84.63
2022-11-17T01:43:20.736Z,85.08
2022-11-17T01:44:20.616Z,84.98
2022-11-17T01:45:20.655Z,86.61
2022-11-17T01:46:20.592Z,86.20
2022-11-17T01:47:20.683Z,89.78
2022-11-17T01:48:20.660Z,91.05
2022-11-17T01:49:20.561Z,89.61
2022-11-17T01:50:20.558Z,89.92
2022-11-17T01:51:20.569Z,89.86
2022-11-17T01:52:20.542Z,87.47
2022-11-17T01:53:20.531Z,86.14
2022-11-17T01:54:20.501Z,87.26
2022-11-17T01:55:20.503Z,90.08
2022-11-17T01:56:20.504Z,89.58
2022-11-17T01:57:20.501Z,89.82
2022-11-17T01:58:20.455Z,91.05
2022-11-17T01:59:20.575Z,89.72
2022-11-17T02:00:20.447Z,90.23
2022-11-17T02:01:20.501Z,90.78
2022-11-17T02:02:20.419Z,91.19
2022-11-17T02:03:20.441Z,91.50
2022-11-17T02:04:20.412Z,94.10
2022-11-17T02:05:20.375Z,94.60
2022-11-17T02:06:20.416Z,96.25
2022-11-17T02:07:20.424Z,96.45
2022-11-17T02:08:20.378Z,96.55
2022-11-17T02:09:20.346Z,97.11
2022-11-17T02:10:20.338Z,97.31
2022-11-17T02:11:20.379Z,97.72
2022-11-17T02:12:20.308Z,98.79
2022-11-17T02:13:20.336Z,97.97
2022-11-17T02:14:20.339Z,97.87
2022-11-17T02:15:20.298Z,96.29
2022-11-17T02:16:20.270Z,96.49
2022-11-17T02:17:20.402Z,96.08
2022-11-17T02:18:20.293Z,93.89
2022-11-17T02:19:20.236Z,93.29
2022-11-17T02:20:20.237Z,92.54
2022-11-17T02:21:20.214Z,90.86
2022-11-17T02:22:20.232Z,89.69
2022-11-17T02:23:20.222Z,88.28
2022-11-17T02:24:20.188Z,88.45
2022-11-17T02:25:25.728Z,88.10
2022-11-17T02:26:21.193Z,88.61
2022-11-17T02:27:20.135Z,89.16
2022-11-17T02:28:20.259Z,89.63
2022-11-17T02:29:20.135Z,90.69
2022-11-17T02:30:20.103Z,90.03
2022-11-17T02:31:20.138Z,89.22
2022-11-17T02:32:20.106Z,89.28
2022-11-17T02:33:20.074Z,89.12
2022-11-17T02:34:20.125Z,88.46
2022-11-17T02:35:20.071Z,88.06
2022-11-17T02:36:20.056Z,87.96
2022-11-17T02:37:20.074Z,88.26
2022-11-17T02:38:20.031Z,88.46
2022-11-17T02:39:20.033Z,88.36
2022-11-17T02:40:20.023Z,87.96
2022-11-17T02:41:20.005Z,88.67
2022-11-17T02:42:19.983Z,87.04
2022-11-17T02:43:20.005Z,86.39
2022-11-17T02:44:19.982Z,85.88
2022-11-17T02:45:19.961Z,86.69
2022-11-17T02:46:19.989Z,86.80
2022-11-17T02:47:19.989Z,86.80
2022-11-17T02:48:19.939Z,87.30
2022-11-17T02:49:19.918Z,86.80
2022-11-17T02:50:22.870Z,87.51
2022-11-17T02:51:20.885Z,88.73
2022-11-17T02:52:19.875Z,87.41
2022-11-17T02:53:19.880Z,87.75
2022-11-17T02:54:19.860Z,88.22
2022-11-17T02:55:19.890Z,87.85
2022-11-17T02:56:19.833Z,87.24
2022-11-17T02:57:19.839Z,87.92
2022-11-17T02:58:19.864Z,88.22
2022-11-17T02:59:19.857Z,87.41
2022-11-17T03:00:19.819Z,88.63
2022-11-17T03:01:19.874Z,87.71
2022-11-17T03:02:19.835Z,88.02
2022-11-17T03:03:19.851Z,88.53
2022-11-17T03:04:19.817Z,88.46
2022-11-17T03:05:19.728Z,89.03
2022-11-17T03:06:19.879Z,89.28
2022-11-17T03:07:19.746Z,88.77
2022-11-17T03:08:19.756Z,89.48
2022-11-17T03:09:19.697Z,89.07
2022-11-17T03:10:19.677Z,89.28
2022-11-17T03:11:19.669Z,88.87
2022-11-17T03:12:19.664Z,89.38
2022-11-17T03:13:19.660Z,88.98
2022-11-17T03:14:19.637Z,89.99
2022-11-17T03:15:19.632Z,88.87
2022-11-17T03:16:19.621Z,89.48
2022-11-17T03:17:19.624Z,89.42
2022-11-17T03:18:19.575Z,90.30
2022-11-17T03:19:19.678Z,91.56
2022-11-17T03:20:19.594Z,91.77
2022-11-17T03:21:19.646Z,92.42
2022-11-17T03:22:19.548Z,91.50
2022-11-17T03:23:19.625Z,91.30
2022-11-17T03:24:19.529Z,91.71
2022-11-17T03:25:19.603Z,91.20
2022-11-17T03:26:19.492Z,92.83
2022-11-17T03:27:19.501Z,93.89
2022-11-17T03:28:19.479Z,94.20
2022-11-17T03:29:19.515Z,93.89
2022-11-17T03:30:19.459Z,92.16
2022-11-17T03:31:19.480Z,92.77
2022-11-17T03:32:19.464Z,92.97
2022-11-17T03:33:19.458Z,92.46
2022-11-17T03:34:19.418Z,93.89
2022-11-17T03:35:19.460Z,93.69
2022-11-17T03:36:19.417Z,92.63
2022-11-17T03:37:19.469Z,91.20
2022-11-17T03:38:19.448Z,89.77
2022-11-17T03:39:19.361Z,90.24
2022-11-17T03:40:19.405Z,90.64
2022-11-17T03:41:19.326Z,90.75
2022-11-17T03:42:19.376Z,89.63
2022-11-17T03:43:19.318Z,91.16
2022-11-17T03:44:19.288Z,92.07
2022-11-17T03:45:19.321Z,92.63
2022-11-17T03:46:19.274Z,92.22
2022-11-17T03:47:19.272Z,94.87
2022-11-17T03:48:19.287Z,95.12
2022-11-17T03:49:19.301Z,95.21
2022-11-17T03:50:19.286Z,95.52
2022-11-17T03:51:19.269Z,94.95
2022-11-17T03:52:19.232Z,94.91
2022-11-17T03:53:19.204Z,95.73
2022-11-17T03:54:19.225Z,96.28
2022-11-17T03:55:19.203Z,96.79
2022-11-17T03:56:19.192Z,97.20
2022-11-17T03:57:19.168Z,96.89
2022-11-17T03:58:19.145Z,98.16
2022-11-17T03:59:19.192Z,98.57
2022-11-17T04:00:19.127Z,97.55
2022-11-17T04:01:19.176Z,96.73
2022-11-17T04:02:19.150Z,96.43
2022-11-17T04:03:19.084Z,96.33
2022-11-17T04:04:19.164Z,95.26
2022-11-17T04:05:19.107Z,94.50
2022-11-17T04:06:19.070Z,93.69
2022-11-17T04:07:19.139Z,93.18
2022-11-17T04:08:19.042Z,92.42
2022-11-17T04:09:24.222Z,91.40
2022-11-17T04:10:20.019Z,90.44
2022-11-17T04:11:19.005Z,89.94
2022-11-17T04:12:18.997Z,89.42
2022-11-17T04:13:19.003Z,89.69
2022-11-17T04:14:19.020Z,89.89
2022-11-17T04:15:18.958Z,90.50
2022-11-17T04:16:18.946Z,90.20
2022-11-17T04:17:18.953Z,89.59
2022-11-17T04:18:18.947Z,89.48
2022-11-17T04:19:18.902Z,89.28
2022-11-17T04:20:18.903Z,89.28
2022-11-17T04:21:18.918Z,89.07
2022-11-17T04:22:18.891Z,89.48
2022-11-17T04:23:18.993Z,89.24
2022-11-17T04:24:18.875Z,89.85
2022-11-17T04:25:18.874Z,89.14
2022-11-17T04:26:18.851Z,89.85
2022-11-17T04:27:18.870Z,90.70
2022-11-17T04:28:18.842Z,90.50
2022-11-17T04:29:18.823Z,89.79
2022-11-17T04:30:18.811Z,89.48
2022-11-17T04:31:18.780Z,88.63
2022-11-17T04:32:18.884Z,89.03
2022-11-17T04:33:18.788Z,89.54
2022-11-17T04:34:18.766Z,89.54
2022-11-17T04:35:18.771Z,88.83
2022-11-17T04:36:18.725Z,89.95
2022-11-17T04:37:18.732Z,89.34
2022-11-17T04:38:18.708Z,89.34
2022-11-17T04:39:18.801Z,89.03
2022-11-17T04:40:18.681Z,88.93
2022-11-17T04:41:18.738Z,89.24
2022-11-17T04:42:18.731Z,89.64
2022-11-17T04:43:18.683Z,89.18
2022-11-17T04:44:18.728Z,88.83
2022-11-17T04:45:18.654Z,88.93
2022-11-17T04:46:18.645Z,89.44
2022-11-17T04:47:18.616Z,89.24
2022-11-17T04:48:18.606Z,89.54
2022-11-17T04:49:18.607Z,89.44
2022-11-17T04:50:18.584Z,89.34
2022-11-17T04:51:18.571Z,89.75
2022-11-17T04:52:18.605Z,89.61
2022-11-17T04:53:18.552Z,89.40
2022-11-17T04:54:18.585Z,89.20
2022-11-17T04:55:18.538Z,88.79
2022-11-17T04:56:18.531Z,89.20
2022-11-17T04:57:18.556Z,88.89
2022-11-17T04:58:18.493Z,89.00
2022-11-17T04:59:18.482Z,89.09
2022-11-17T05:00:18.491Z,89.81
2022-11-17T05:01:18.453Z,89.40
2022-11-17T05:02:18.515Z,89.81
2022-11-17T05:03:18.432Z,89.91
2022-11-17T05:04:18.431Z,89.24
2022-11-17T05:05:18.443Z,89.00
2022-11-17T05:06:18.435Z,89.09
2022-11-17T05:07:18.526Z,89.20
2022-11-17T05:08:18.411Z,89.09
2022-11-17T05:09:18.403Z,89.09
2022-11-17T05:10:18.377Z,89.64
2022-11-17T05:11:18.557Z,89.34
2022-11-17T05:12:18.356Z,89.24
2022-11-17T05:13:18.347Z,89.34
2022-11-17T05:14:18.321Z,89.14
2022-11-17T05:15:18.312Z,89.44
2022-11-17T05:16:18.293Z,89.44
2022-11-17T05:17:18.321Z,89.54
2022-11-17T05:18:18.316Z,89.54
2022-11-17T05:19:18.316Z,89.34
2022-11-17T05:20:18.253Z,89.95
2022-11-17T05:21:18.267Z,89.75
2022-11-17T05:22:18.240Z,89.44
2022-11-17T05:23:18.222Z,90.01
2022-11-17T05:24:18.268Z,90.66
2022-11-17T05:25:18.213Z,90.46
2022-11-17T05:26:18.192Z,90.46
2022-11-17T05:27:18.299Z,89.75
2022-11-17T05:28:18.192Z,90.66
2022-11-17T05:29:18.213Z,90.66
2022-11-17T05:30:18.169Z,90.46
2022-11-17T05:31:18.140Z,89.50
2022-11-17T05:32:18.125Z,89.40
2022-11-17T05:33:18.357Z,89.75
2022-11-17T05:34:18.097Z,89.81
2022-11-17T05:35:18.132Z,90.52
2022-11-17T05:36:18.084Z,90.62
2022-11-17T05:37:18.097Z,89.40
2022-11-17T05:38:18.064Z,89.40
2022-11-17T05:39:18.039Z,89.61
2022-11-17T05:40:18.033Z,89.61
2022-11-17T05:41:18.040Z,90.42
2022-11-17T05:42:18.042Z,90.56
2022-11-17T05:43:18.114Z,90.46
2022-11-17T05:44:17.984Z,90.86
2022-11-17T05:45:17.981Z,90.86
2022-11-17T05:46:18.010Z,90.36
2022-11-17T05:47:18.051Z,90.66
2022-11-17T05:48:17.962Z,90.16
2022-11-17T05:49:17.936Z,90.31
2022-11-17T05:50:17.978Z,89.91
2022-11-17T05:51:17.935Z,91.03
2022-11-17T05:52:17.908Z,90.11
2022-11-17T05:53:17.899Z,90.01
2022-11-17T05:54:17.897Z,90.62
2022-11-17T05:55:17.885Z,90.48
2022-11-17T05:56:17.864Z,90.42
2022-11-17T05:57:17.866Z,90.11
2022-11-17T05:58:17.840Z,90.27
2022-11-17T05:59:18.792Z,89.81
2022-11-17T06:00:17.827Z,90.52
2022-11-17T06:01:17.800Z,90.52
2022-11-17T06:02:17.829Z,90.52
2022-11-17T06:03:17.799Z,90.42
2022-11-17T06:04:17.885Z,90.11
2022-11-17T06:05:20.490Z,90.01
2022-11-17T06:06:17.763Z,90.31
2022-11-17T06:07:18.067Z,90.22
2022-11-17T06:08:17.734Z,90.62
2022-11-17T06:09:17.734Z,90.31
2022-11-17T06:10:17.781Z,92.96
2022-11-17T06:11:17.711Z,94.43
2022-11-17T06:12:17.714Z,96.41
2022-11-17T06:13:17.675Z,97.16
2022-11-17T06:14:17.674Z,98.33
2022-11-17T06:15:17.775Z,99.25
2022-11-17T06:16:17.675Z,99.40
2022-11-17T06:17:22.080Z,99.99
2022-11-17T06:18:18.614Z,99.99
2022-11-17T06:19:17.629Z,99.99
2022-11-17T06:20:17.608Z,99.99
2022-11-17T06:21:17.630Z,99.99
2022-11-17T06:22:17.614Z,99.99
2022-11-17T06:23:17.565Z,99.85
2022-11-17T06:24:17.583Z,99.99
2022-11-17T06:25:17.549Z,99.99
2022-11-17T06:26:17.527Z,99.75
2022-11-17T06:27:17.544Z,99.95
2022-11-17T06:28:17.506Z,99.99
2022-11-17T06:29:17.560Z,99.99
2022-11-17T06:30:17.489Z,99.99
2022-11-17T06:31:17.546Z,99.99
2022-11-17T06:32:17.487Z,99.99
2022-11-17T06:33:17.487Z,99.99
2022-11-17T06:34:17.440Z,99.99
2022-11-17T06:35:17.483Z,99.99
2022-11-17T06:36:17.422Z,99.99
2022-11-17T06:37:17.419Z,99.99
2022-11-17T06:38:17.418Z,99.99
2022-11-17T06:39:17.426Z,99.99
2022-11-17T06:40:17.375Z,99.99
2022-11-17T06:41:17.422Z,99.99
2022-11-17T06:42:17.413Z,99.99
2022-11-17T06:43:17.515Z,99.99
2022-11-17T06:44:17.385Z,99.99
2022-11-17T06:45:17.326Z,99.99
2022-11-17T06:46:17.337Z,99.99
2022-11-17T06:47:17.394Z,99.99
2022-11-17T06:48:17.292Z,99.99
2022-11-17T06:49:17.364Z,99.99
2022-11-17T06:50:17.271Z,99.99
2022-11-17T06:51:17.290Z,99.99
2022-11-17T06:52:17.277Z,99.99
2022-11-17T06:53:17.241Z,99.99
2022-11-17T06:54:17.268Z,99.99
2022-11-17T06:55:17.244Z,99.99
2022-11-17T06:56:17.239Z,99.99
2022-11-17T06:57:17.277Z,99.99
2022-11-17T06:58:17.190Z,99.99
2022-11-17T06:59:17.174Z,99.99
2022-11-17T07:00:17.205Z,99.99
2022-11-17T07:01:17.245Z,99.99
2022-11-17T07:02:17.165Z,99.99
2022-11-17T07:03:17.179Z,99.99
2022-11-17T07:04:17.213Z,99.99
2022-11-17T07:05:17.110Z,99.99
2022-11-17T07:06:17.108Z,99.99
2022-11-17T07:07:17.170Z,99.99
2022-11-17T07:08:17.071Z,99.99
2022-11-17T07:09:17.073Z,99.99
2022-11-17T07:10:17.048Z,99.99
2022-11-17T07:11:17.061Z,99.99
2022-11-17T07:12:17.058Z,99.99
2022-11-17T07:13:17.019Z,99.99
2022-11-17T07:14:17.008Z,99.99
2022-11-17T07:15:17.005Z,99.99
2022-11-17T07:16:22.891Z,99.99
2022-11-17T07:17:18.059Z,99.99
2022-11-17T07:18:16.970Z,99.99
2022-11-17T07:19:16.992Z,99.99
2022-11-17T07:20:16.952Z,99.99
2022-11-17T07:21:16.939Z,99.99
2022-11-17T07:22:16.948Z,99.99
2022-11-17T07:23:16.938Z,99.99
2022-11-17T07:24:16.905Z,99.99
2022-11-17T07:25:22.142Z,99.99
2022-11-17T07:26:17.919Z,99.99
2022-11-17T07:27:16.890Z,99.99
2022-11-17T07:28:16.860Z,99.99
2022-11-17T07:29:16.859Z,99.99
2022-11-17T07:30:16.843Z,99.99
2022-11-17T07:31:16.825Z,99.99
2022-11-17T07:32:16.910Z,99.99
2022-11-17T07:33:16.801Z,99.99
2022-11-17T07:34:16.793Z,99.99
2022-11-17T07:35:16.895Z,99.99
2022-11-17T07:36:16.764Z,99.99
2022-11-17T07:37:16.806Z,99.99
2022-11-17T07:38:16.822Z,99.99
2022-11-17T07:39:21.272Z,99.99
2022-11-17T07:40:17.720Z,99.99
2022-11-17T07:41:16.721Z,99.99
2022-11-17T07:42:17.408Z,99.99
2022-11-17T07:43:16.691Z,99.99
2022-11-17T07:44:16.709Z,99.99
2022-11-17T07:45:16.676Z,99.99
2022-11-17T07:46:16.658Z,99.99
2022-11-17T07:47:16.685Z,99.99
2022-11-17T07:48:16.658Z,99.99
2022-11-17T07:49:16.664Z,99.99
2022-11-17T07:50:16.696Z,99.99
2022-11-17T07:51:16.719Z,99.99
2022-11-17T07:52:16.615Z,99.99
2022-11-17T07:53:16.584Z,99.99
2022-11-17T07:54:16.587Z,99.99
2022-11-17T07:55:16.573Z,99.99
2022-11-17T07:56:16.595Z,99.99
2022-11-17T07:57:16.565Z,99.99
2022-11-17T07:58:16.524Z,99.99
2022-11-17T07:59:21.154Z,99.99
2022-11-17T08:00:17.500Z,99.99
2022-11-17T08:01:16.662Z,99.99
2022-11-17T08:02:16.555Z,99.99
2022-11-17T08:03:16.509Z,99.99
2022-11-17T08:04:16.491Z,99.99
2022-11-17T08:05:16.453Z,99.99
2022-11-17T08:06:16.456Z,99.99
2022-11-17T08:07:16.592Z,99.99
2022-11-17T08:08:16.446Z,99.99
2022-11-17T08:09:16.428Z,99.43
2022-11-17T08:10:16.394Z,99.63
2022-11-17T08:11:16.389Z,99.99
2022-11-17T08:12:16.448Z,99.99
2022-11-17T08:13:16.375Z,99.63
2022-11-17T08:14:16.362Z,99.63
2022-11-17T08:15:16.384Z,99.99
2022-11-17T08:16:16.341Z,99.68
2022-11-17T08:17:16.362Z,99.27
2022-11-17T08:18:16.305Z,99.16
2022-11-17T08:19:16.307Z,98.65
2022-11-17T08:20:16.378Z,98.75
2022-11-17T08:21:16.317Z,99.68
2022-11-17T08:22:16.330Z,98.04
2022-11-17T08:23:16.374Z,98.55
2022-11-17T08:24:16.265Z,97.53
2022-11-17T08:25:16.233Z,98.55
2022-11-17T08:26:16.246Z,98.65
2022-11-17T08:27:16.225Z,98.80
2022-11-17T08:28:16.211Z,98.90
2022-11-17T08:29:16.204Z,98.49
2022-11-17T08:30:16.179Z,97.94
2022-11-17T08:31:16.186Z,97.88
2022-11-17T08:32:16.173Z,97.53
2022-11-17T08:33:16.145Z,97.98
2022-11-17T08:34:16.268Z,98.90
2022-11-17T08:35:16.173Z,98.60
2022-11-17T08:36:16.116Z,98.90
2022-11-17T08:37:16.130Z,98.80
2022-11-17T08:38:16.090Z,98.14
2022-11-17T08:39:16.188Z,97.63
2022-11-17T08:40:16.104Z,97.74
2022-11-17T08:41:16.057Z,98.04
2022-11-17T08:42:16.062Z,97.74
2022-11-17T08:43:16.042Z,96.71
2022-11-17T08:44:16.030Z,96.92
2022-11-17T08:45:16.062Z,96.26
2022-11-17T08:46:16.027Z,96.26
2022-11-17T08:47:16.016Z,96.20
2022-11-17T08:48:16.159Z,96.36
2022-11-17T08:49:15.990Z,96.05
2022-11-17T08:50:15.964Z,96.15
2022-11-17T08:51:16.032Z,96.05
2022-11-17T08:52:15.976Z,96.56
2022-11-17T08:53:15.977Z,96.46
2022-11-17T08:54:15.927Z,95.75
2022-11-17T08:55:16.105Z,95.75
2022-11-17T08:56:15.953Z,96.15
2022-11-17T08:57:16.004Z,95.85
2022-11-17T08:58:15.880Z,95.19
2022-11-17T08:59:15.913Z,94.68
2022-11-17T09:00:15.851Z,95.09
2022-11-17T09:01:15.974Z,95.19
2022-11-17T09:02:15.889Z,94.58
2022-11-17T09:03:15.887Z,94.37
2022-11-17T09:04:15.807Z,94.17
2022-11-17T09:05:15.836Z,93.71
2022-11-17T09:06:15.793Z,93.35
2022-11-17T09:07:15.839Z,93.31
2022-11-17T09:08:43.786Z,93.71
2022-11-17T09:09:16.782Z,95.04
2022-11-17T09:10:15.810Z,94.12
2022-11-17T09:11:15.843Z,93.37
2022-11-17T09:12:15.750Z,92.71
2022-11-17T09:13:18.593Z,92.30
2022-11-17T09:14:15.696Z,92.61
2022-11-17T09:15:15.780Z,92.50
2022-11-17T09:16:15.705Z,91.69
2022-11-17T09:17:15.684Z,92.30
2022-11-17T09:18:15.650Z,92.61
2022-11-17T09:19:15.667Z,92.50
2022-11-17T09:20:15.670Z,91.59
2022-11-17T09:21:15.685Z,92.46
2022-11-17T09:22:15.656Z,91.24
2022-11-17T09:23:15.601Z,91.61
2022-11-17T09:24:15.616Z,90.79
2022-11-17T09:25:15.586Z,91.16
2022-11-17T09:26:15.595Z,89.44
2022-11-17T09:27:15.703Z,88.71
2022-11-17T09:28:15.596Z,89.32
2022-11-17T09:29:15.546Z,89.36
2022-11-17T09:30:15.529Z,89.47
2022-11-17T09:31:15.582Z,89.06
2022-11-17T09:32:15.540Z,89.57
2022-11-17T09:33:15.575Z,90.08
2022-11-17T09:34:15.542Z,89.67
2022-11-17T09:35:15.479Z,88.61
2022-11-17T09:36:15.504Z,88.71
2022-11-17T09:37:15.459Z,87.96
2022-11-17T09:38:15.472Z,88.67
2022-11-17T09:39:15.428Z,88.06
2022-11-17T09:40:15.416Z,88.06
2022-11-17T09:41:15.414Z,87.69
2022-11-17T09:42:15.487Z,88.40
2022-11-17T09:43:15.493Z,87.65
2022-11-17T09:44:15.382Z,88.31
2022-11-17T09:45:15.420Z,88.61
2022-11-17T09:46:15.355Z,88.26
2022-11-17T09:47:15.375Z,86.69
2022-11-17T09:48:42.317Z,86.29
2022-11-17T09:49:16.340Z,87.06
2022-11-17T09:50:15.306Z,87.32
2022-11-17T09:51:15.301Z,87.37
2022-11-17T09:52:15.349Z,87.81
2022-11-17T09:53:15.290Z,87.81
2022-11-17T09:54:15.273Z,87.51
2022-11-17T09:55:15.265Z,86.83
2022-11-17T09:56:15.233Z,88.53
2022-11-17T09:57:15.241Z,88.06
2022-11-17T09:58:15.253Z,88.06
2022-11-17T09:59:15.353Z,87.75
2022-11-17T10:00:15.240Z,87.45
2022-11-17T10:01:15.188Z,87.81
2022-11-17T10:02:15.276Z,87.45
2022-11-17T10:03:15.189Z,87.24
2022-11-17T10:04:15.170Z,86.29
2022-11-17T10:05:15.139Z,85.37
2022-11-17T10:06:15.136Z,85.06
2022-11-17T10:07:15.183Z,86.29
2022-11-17T10:08:15.176Z,85.94
2022-11-17T10:09:15.100Z,85.43
2022-11-17T10:10:15.134Z,85.53
2022-11-17T10:11:15.076Z,85.13
2022-11-17T10:12:15.089Z,85.23
2022-11-17T10:13:15.090Z,85.94
2022-11-17T10:14:15.049Z,84.48
2022-11-17T10:15:15.113Z,84.58
2022-11-17T10:16:15.031Z,84.09
2022-11-17T10:17:15.073Z,83.99
2022-11-17T10:18:15.046Z,83.62
2022-11-17T10:19:14.997Z,84.48
2022-11-17T10:20:15.013Z,85.49
2022-11-17T10:21:15.004Z,84.31
2022-11-17T10:22:14.980Z,86.25
2022-11-17T10:23:14.984Z,85.37
2022-11-17T10:24:14.937Z,85.68
2022-11-17T10:25:14.918Z,85.37
2022-11-17T10:26:14.939Z,84.76
2022-11-17T10:27:14.939Z,86.39
2022-11-17T10:28:14.884Z,85.37
2022-11-17T10:29:14.923Z,85.78
2022-11-17T10:30:14.928Z,84.72
2022-11-17T10:31:14.997Z,85.23
2022-11-17T10:32:14.877Z,85.09
2022-11-17T10:33:14.870Z,84.21
2022-11-17T10:34:14.828Z,84.58
2022-11-17T10:35:14.838Z,84.68
2022-11-17T10:36:14.814Z,84.58
2022-11-17T10:37:14.821Z,84.99
2022-11-17T10:38:14.807Z,84.48
2022-11-17T10:39:17.821Z,84.34
2022-11-17T10:40:14.765Z,83.93
2022-11-17T10:41:14.776Z,83.38
2022-11-17T10:42:15.036Z,82.53
2022-11-17T10:43:14.754Z,81.54
2022-11-17T10:44:14.733Z,81.81
2022-11-17T10:45:14.699Z,81.16
2022-11-17T10:46:14.690Z,80.53
2022-11-17T10:47:14.808Z,82.09
2022-11-17T10:48:14.703Z,81.78
2022-11-17T10:49:14.652Z,82.53
2022-11-17T10:50:14.660Z,82.39
2022-11-17T10:51:14.670Z,81.48
2022-11-17T10:52:14.652Z,80.29
2022-11-17T10:53:14.627Z,80.62
2022-11-17T10:54:14.646Z,79.10
2022-11-17T10:55:14.634Z,79.06
2022-11-17T10:56:14.608Z,78.42
2022-11-17T10:57:14.626Z,77.23
2022-11-17T10:58:14.563Z,76.65
2022-11-17T10:59:14.567Z,74.73
2022-11-17T11:00:14.649Z,75.51
2022-11-17T11:01:14.554Z,74.49
2022-11-17T11:02:14.611Z,74.19
2022-11-17T11:03:14.515Z,75.24
2022-11-17T11:04:14.492Z,74.43
2022-11-17T11:05:14.484Z,74.43
2022-11-17T11:06:17.505Z,75.04
2022-11-17T11:07:14.712Z,74.43
2022-11-17T11:08:14.473Z,75.34
2022-11-17T11:09:14.483Z,75.24
2022-11-17T11:10:14.531Z,74.87
2022-11-17T11:11:14.426Z,73.55
2022-11-17T11:12:14.478Z,73.55
2022-11-17T11:13:14.397Z,74.29
2022-11-17T11:14:14.462Z,73.02
2022-11-17T11:15:14.378Z,74.16
2022-11-17T11:16:14.369Z,74.57
2022-11-17T11:17:14.367Z,76.02
2022-11-17T11:18:14.403Z,76.09
2022-11-17T11:19:14.380Z,76.43
2022-11-17T11:20:14.354Z,77.10
2022-11-17T11:21:14.300Z,76.29
2022-11-17T11:22:19.744Z,76.53
2022-11-17T11:23:15.282Z,77.44
2022-11-17T11:24:14.284Z,78.28
2022-11-17T11:25:14.285Z,78.59
2022-11-17T11:26:14.304Z,78.69
2022-11-17T11:27:14.409Z,78.69
2022-11-17T11:28:14.230Z,78.12
2022-11-17T11:29:14.248Z,77.92
2022-11-17T11:30:14.296Z,78.77
2022-11-17T11:31:14.221Z,78.46
2022-11-17T11:32:14.230Z,79.21
2022-11-17T11:33:14.171Z,79.61
2022-11-17T11:34:14.204Z,79.41
2022-11-17T11:35:17.349Z,81.58
2022-11-17T11:36:14.161Z,81.27
2022-11-17T11:37:14.148Z,81.41
2022-11-17T11:38:14.123Z,80.19
2022-11-17T11:39:14.103Z,82.23
2022-11-17T11:40:14.182Z,81.96
2022-11-17T11:41:14.098Z,81.56
2022-11-17T11:42:14.106Z,81.15
2022-11-17T11:43:14.069Z,80.47
2022-11-17T11:44:14.080Z,80.54
2022-11-17T11:45:14.058Z,80.58
2022-11-17T11:46:14.074Z,80.47
2022-11-17T11:47:14.031Z,80.94
2022-11-17T11:48:14.025Z,81.05
2022-11-17T11:49:13.999Z,82.06
2022-11-17T11:50:14.077Z,81.66
2022-11-17T11:51:14.020Z,80.74
2022-11-17T11:52:13.982Z,80.10
2022-11-17T11:53:13.970Z,80.57
2022-11-17T11:54:14.243Z,79.17
2022-11-17T11:55:13.933Z,78.42
2022-11-17T11:56:13.938Z,77.82
2022-11-17T11:57:13.933Z,77.64
2022-11-17T11:58:13.904Z,76.73
2022-11-17T11:59:13.897Z,76.50
2022-11-17T12:00:13.912Z,76.35
2022-11-17T12:01:13.897Z,75.71
2022-11-17T12:02:13.956Z,75.48
2022-11-17T12:03:13.900Z,74.26
2022-11-17T12:04:14.270Z,74.02
2022-11-17T12:05:13.819Z,74.37
2022-11-17T12:06:13.817Z,75.10
2022-11-17T12:07:14.086Z,75.10
2022-11-17T12:08:13.801Z,74.46
2022-11-17T12:09:13.784Z,74.70
2022-11-17T12:10:13.782Z,74.19
2022-11-17T12:11:13.816Z,75.27
2022-11-17T12:12:13.795Z,74.77
2022-11-17T12:13:13.755Z,74.46
2022-11-17T12:14:14.086Z,74.87
2022-11-17T12:15:13.710Z,75.04
2022-11-17T12:16:13.709Z,75.81
2022-11-17T12:17:13.747Z,75.88
2022-11-17T12:18:13.714Z,75.84
2022-11-17T12:19:13.696Z,75.40
2022-11-17T12:20:13.651Z,72.07
2022-11-17T12:21:13.711Z,74.66
2022-11-17T12:22:13.660Z,74.36
2022-11-17T12:23:13.643Z,73.79
2022-11-17T12:24:14.118Z,74.19
2022-11-17T12:25:13.600Z,75.20
2022-11-17T12:26:13.629Z,74.19
2022-11-17T12:27:13.648Z,73.89
2022-11-17T12:28:13.574Z,73.46
2022-11-17T12:29:13.568Z,74.30
2022-11-17T12:30:13.556Z,74.97
2022-11-17T12:31:13.558Z,74.80
2022-11-17T12:32:13.558Z,76.15
2022-11-17T12:33:13.573Z,76.15
2022-11-17T12:34:14.030Z,76.09
2022-11-17T12:35:13.498Z,76.70
2022-11-17T12:36:13.505Z,77.75
2022-11-17T12:37:13.478Z,77.24
2022-11-17T12:38:13.545Z,77.54
2022-11-17T12:39:13.573Z,78.28
2022-11-17T12:40:13.457Z,78.79
2022-11-17T12:41:13.446Z,78.93
2022-11-17T12:42:13.469Z,79.38
2022-11-17T12:43:13.407Z,78.80
2022-11-17T12:44:13.825Z,79.61
2022-11-17T12:45:13.404Z,79.92
2022-11-17T12:46:13.391Z,79.31
2022-11-17T12:47:13.392Z,79.82
2022-11-17T12:48:32.857Z,79.21
2022-11-17T12:49:14.447Z,79.61
2022-11-17T12:50:13.374Z,78.46
2022-11-17T12:51:13.385Z,78.66
2022-11-17T12:52:13.351Z,78.33